Time;durP1;ratioP1;P1;durP2;ratioP2;P2;SDS_P1;SDS_P2;PMS_P1;PMS_P2;Temp;Humidity;BMP_temperature;BMP_pressure;BME280_temperature;BME280_humidity;BME280_pressure;Samples;Min_cycle;Max_cycle;Signal;HPM_P1;HPM_P2
2022/05/14 00:01:04;;;;;;;11.07;7.00;;;16.50;99.90;;;;;;5001412;28;20120;-71
2022/05/14 00:03:31;;;;;;;7.70;5.95;;;16.40;99.90;;;;;;5006352;28;20532;-72
2022/05/14 00:06:03;;;;;;;10.43;6.68;;;16.30;99.90;;;;;;5008307;28;20038;-71
2022/05/14 00:08:29;;;;;;;11.27;7.57;;;16.30;99.90;;;;;;5009795;28;20105;-72
2022/05/14 00:13:39;;;;;;;11.02;6.88;;;16.40;99.90;;;;;;5031796;28;20127;-71
2022/05/14 00:16:07;;;;;;;14.43;6.95;;;16.50;99.90;;;;;;5005577;28;20038;-71
2022/05/14 00:18:33;;;;;;;11.82;7.63;;;16.20;99.90;;;;;;5009621;28;20031;-71
2022/05/14 00:20:59;;;;;;;10.82;7.10;;;16.10;99.90;;;;;;5005883;28;20073;-71
2022/05/14 00:23:26;;;;;;;11.80;7.10;;;16.00;99.90;;;;;;5010120;28;20069;-71
2022/05/14 00:25:52;;;;;;;10.75;8.05;;;16.00;99.90;;;;;;5001246;28;20034;-72
2022/05/14 00:28:18;;;;;;;11.20;7.82;;;16.00;99.90;;;;;;5011505;28;20037;-72
2022/05/14 00:30:44;;;;;;;11.75;7.93;;;15.90;99.90;;;;;;5003532;28;20076;-71
2022/05/14 00:33:09;;;;;;;10.23;7.10;;;16.10;99.90;;;;;;5011338;28;20059;-71
2022/05/14 00:35:35;;;;;;;10.38;6.60;;;16.20;99.90;;;;;;5003928;28;20029;-72
2022/05/14 00:38:01;;;;;;;10.50;7.32;;;16.20;99.90;;;;;;5023941;28;20036;-71
2022/05/14 00:40:36;;;;;;;13.85;7.18;;;16.40;99.90;;;;;;5008664;28;20444;-72
2022/05/14 00:43:02;;;;;;;10.43;6.40;;;16.40;99.90;;;;;;5004995;28;20034;-71
2022/05/14 00:45:30;;;;;;;11.30;7.18;;;16.30;99.90;;;;;;5014438;28;20114;-71
2022/05/14 00:47:59;;;;;;;11.27;7.00;;;16.40;99.90;;;;;;5008670;28;20093;-71
2022/05/14 00:50:47;;;;;;;10.07;6.57;;;16.40;99.90;;;;;;5012624;28;20491;-71
2022/05/14 00:53:17;;;;;;;10.55;6.35;;;16.20;99.90;;;;;;5008835;28;20072;-71
2022/05/14 00:55:46;;;;;;;8.55;6.45;;;16.10;99.90;;;;;;5007835;28;20500;-71
2022/05/14 00:58:20;;;;;;;11.82;8.13;;;16.00;99.90;;;;;;5013673;28;20080;-71
2022/05/14 01:00:46;;;;;;;10.02;7.05;;;16.00;99.90;;;;;;5010678;28;20029;-71
2022/05/14 01:03:12;;;;;;;10.15;7.40;;;16.00;99.90;;;;;;5012891;28;20499;-72
2022/05/14 01:05:37;;;;;;;9.82;7.70;;;16.10;99.90;;;;;;5010078;28;20060;-71
2022/05/14 01:08:04;;;;;;;8.27;6.38;;;16.30;99.90;;;;;;5010165;28;20120;-71
2022/05/14 01:10:40;;;;;;;9.98;6.43;;;16.10;99.90;;;;;;5011179;28;20038;-71
2022/05/14 01:13:05;;;;;;;10.73;6.72;;;15.90;99.90;;;;;;5008836;28;20065;-71
2022/05/14 01:15:53;;;;;;;11.98;6.82;;;15.80;99.90;;;;;;5011376;28;20484;-71
2022/05/14 01:18:22;;;;;;;12.68;6.70;;;15.80;99.90;;;;;;5006276;28;20026;-72
2022/05/14 01:21:00;;;;;;;13.35;6.82;;;15.70;99.90;;;;;;5010947;28;20041;-72
2022/05/14 01:26:29;;;;;;;10.13;6.70;;;15.60;99.90;;;;;;5008244;28;20053;-72
2022/05/14 01:29:02;;;;;;;12.20;7.72;;;15.70;99.90;;;;;;5012805;28;20117;-71
2022/05/14 01:31:29;;;;;;;13.40;7.22;;;15.70;99.90;;;;;;5003222;28;20120;-71
2022/05/14 01:33:58;;;;;;;11.18;7.32;;;15.70;99.90;;;;;;5013063;28;20037;-72
2022/05/14 01:36:24;;;;;;;13.27;7.25;;;15.70;99.90;;;;;;5011326;28;20046;-71
2022/05/14 01:38:50;;;;;;;12.27;7.68;;;15.90;99.90;;;;;;5006733;28;20034;-71
2022/05/14 01:41:16;;;;;;;12.70;7.55;;;15.70;99.90;;;;;;5008960;28;20036;-71
2022/05/14 01:43:42;;;;;;;12.00;7.50;;;15.70;99.90;;;;;;5013637;28;20030;-71
2022/05/14 01:46:10;;;;;;;11.63;7.75;;;15.70;99.90;;;;;;5009504;28;20476;-71
2022/05/14 01:48:35;;;;;;;11.25;7.32;;;15.70;99.90;;;;;;5013400;28;20049;-71
2022/05/14 01:51:01;;;;;;;11.75;7.43;;;15.70;99.90;;;;;;5008417;28;20018;-71
2022/05/14 01:53:27;;;;;;;10.25;7.00;;;15.70;99.90;;;;;;5012639;28;20392;-71
2022/05/14 01:55:52;;;;;;;10.48;7.57;;;15.70;99.90;;;;;;5007959;28;20044;-72
2022/05/14 01:58:36;;;;;;;11.95;8.45;;;15.70;99.90;;;;;;5007971;28;20496;-72
2022/05/14 02:01:21;;;;;;;11.30;7.47;;;15.70;99.90;;;;;;5012268;28;20057;-71
2022/05/14 02:03:54;;;;;;;10.80;7.18;;;15.80;99.90;;;;;;5003390;28;20046;-71
2022/05/14 02:06:21;;;;;;;10.50;7.57;;;15.80;99.90;;;;;;5024595;28;20397;-72
2022/05/14 02:08:46;;;;;;;10.75;8.13;;;15.90;99.90;;;;;;5010737;28;20026;-71
2022/05/14 02:11:13;;;;;;;11.02;6.90;;;15.90;99.90;;;;;;5002138;28;20041;-71
2022/05/14 02:13:40;;;;;;;9.95;6.85;;;15.80;99.90;;;;;;5006137;28;20048;-71
2022/05/14 02:16:06;;;;;;;13.13;7.18;;;15.90;99.90;;;;;;5011367;28;20041;-71
2022/05/14 02:18:32;;;;;;;11.57;7.00;;;15.90;99.90;;;;;;5005429;28;20721;-71
2022/05/14 02:20:58;;;;;;;14.40;7.43;;;16.00;99.90;;;;;;5010115;28;20030;-71
2022/05/14 02:23:24;;;;;;;11.43;7.28;;;16.20;99.90;;;;;;5011170;28;20026;-71
2022/05/14 02:25:49;;;;;;;11.55;7.68;;;16.00;99.90;;;;;;5010169;28;20169;-71
2022/05/14 02:28:16;;;;;;;10.48;6.85;;;16.10;99.90;;;;;;5011606;28;20570;-71
2022/05/14 02:30:43;;;;;;;12.65;8.38;;;16.10;99.90;;;;;;5008238;28;20022;-71
2022/05/14 02:33:10;;;;;;;10.25;7.13;;;16.00;99.90;;;;;;5000647;28;20105;-71
2022/05/14 02:35:36;;;;;;;10.45;7.43;;;15.80;99.90;;;;;;5008352;28;20041;-71
2022/05/14 02:38:02;;;;;;;14.80;7.53;;;15.70;99.90;;;;;;5013287;28;20034;-71
2022/05/14 02:40:27;;;;;;;16.33;8.50;;;15.80;99.90;;;;;;5010500;28;20127;-71
2022/05/14 02:42:54;;;;;;;11.07;6.70;;;15.60;99.90;;;;;;5015430;28;20037;-71
2022/05/14 02:45:19;;;;;;;12.80;7.43;;;15.60;99.90;;;;;;5016967;28;20033;-71
2022/05/14 02:47:45;;;;;;;14.07;7.15;;;15.70;99.90;;;;;;4999958;28;20026;-72
2022/05/14 02:50:11;;;;;;;9.90;7.22;;;15.70;99.90;;;;;;5010535;28;20384;-71
2022/05/14 02:52:37;;;;;;;9.20;7.18;;;15.80;99.90;;;;;;5011341;28;20111;-73
2022/05/14 02:55:04;;;;;;;11.48;7.70;;;15.70;99.90;;;;;;5006018;28;20509;-72
2022/05/14 02:57:30;;;;;;;12.52;7.53;;;15.60;99.90;;;;;;5001904;28;20472;-71
2022/05/14 02:59:55;;;;;;;11.02;7.65;;;15.60;99.90;;;;;;5007734;28;20080;-72
2022/05/14 03:02:21;;;;;;;11.45;7.38;;;15.70;99.90;;;;;;5003487;28;20054;-71
2022/05/14 03:04:48;;;;;;;9.88;7.35;;;15.60;99.90;;;;;;4998381;28;20096;-71
2022/05/14 03:07:15;;;;;;;9.27;7.15;;;15.70;99.90;;;;;;5002229;28;20033;-71
2022/05/14 03:09:42;;;;;;;11.02;7.03;;;15.70;99.90;;;;;;4989074;28;20077;-71
2022/05/14 03:12:13;;;;;;;12.65;7.55;;;15.60;99.90;;;;;;4996387;28;20036;-70
2022/05/14 03:14:39;;;;;;;11.85;7.88;;;15.70;99.90;;;;;;5004566;28;20038;-71
2022/05/14 03:17:06;;;;;;;12.80;7.38;;;15.70;99.90;;;;;;5004208;28;20709;-70
2022/05/14 03:19:32;;;;;;;9.27;7.03;;;15.80;99.90;;;;;;5012354;28;20275;-70
2022/05/14 03:21:59;;;;;;;9.57;7.28;;;15.80;99.90;;;;;;5000481;28;20522;-70
2022/05/14 03:24:25;;;;;;;9.73;7.13;;;15.90;99.90;;;;;;5004561;28;20032;-71
2022/05/14 03:26:51;;;;;;;13.23;7.43;;;15.90;99.90;;;;;;5006897;28;20030;-71
2022/05/14 03:29:18;;;;;;;13.18;6.95;;;15.80;99.90;;;;;;5006232;28;20054;-71
2022/05/14 03:31:44;;;;;;;12.80;7.55;;;15.80;99.90;;;;;;5021563;28;20716;-71
2022/05/14 03:34:11;;;;;;;9.65;6.95;;;15.90;99.90;;;;;;5008650;28;20026;-70
2022/05/14 03:36:40;;;;;;;10.80;6.47;;;15.80;99.90;;;;;;5007506;28;20432;-71
2022/05/14 03:39:06;;;;;;;9.65;6.97;;;15.80;99.90;;;;;;4991524;28;20429;-70
2022/05/14 03:41:33;;;;;;;10.93;7.28;;;15.90;99.90;;;;;;5005595;28;20104;-71
2022/05/14 03:43:58;;;;;;;13.23;8.32;;;15.90;99.90;;;;;;5008243;28;20124;-70
2022/05/14 03:46:24;;;;;;;12.35;8.88;;;16.20;99.90;;;;;;5004696;28;20102;-71
2022/05/14 03:48:50;;;;;;;10.95;7.57;;;16.10;99.90;;;;;;5006518;28;20041;-71
2022/05/14 03:51:15;;;;;;;12.77;8.43;;;16.00;99.90;;;;;;5006553;28;20030;-71
2022/05/14 03:53:41;;;;;;;12.18;7.40;;;16.20;99.90;;;;;;5019044;28;20610;-70
2022/05/14 03:56:08;;;;;;;10.27;7.68;;;16.10;99.90;;;;;;5003711;28;20526;-70
2022/05/14 03:58:34;;;;;;;11.07;7.47;;;16.00;99.90;;;;;;5000638;28;20040;-71
2022/05/14 04:01:01;;;;;;;10.15;7.18;;;16.10;99.90;;;;;;4999270;28;20022;-70
2022/05/14 04:03:28;;;;;;;13.38;8.68;;;16.10;99.90;;;;;;5001080;28;20041;-70
2022/05/14 04:05:54;;;;;;;10.48;8.05;;;16.10;99.90;;;;;;5005075;28;20041;-71
2022/05/14 04:08:19;;;;;;;11.15;7.78;;;16.10;99.90;;;;;;5005932;28;20021;-71
2022/05/14 04:10:45;;;;;;;13.18;6.78;;;16.20;99.90;;;;;;5004738;28;20067;-71
2022/05/14 04:13:14;;;;;;;11.93;7.00;;;16.20;99.90;;;;;;5004356;28;20048;-71
2022/05/14 04:15:41;;;;;;;9.55;6.90;;;16.20;99.90;;;;;;5027631;28;20033;-71
2022/05/14 04:18:07;;;;;;;14.68;8.02;;;16.20;99.90;;;;;;5015315;28;20030;-71
2022/05/14 04:20:33;;;;;;;11.73;7.32;;;16.20;99.90;;;;;;5001129;28;20033;-70
2022/05/14 04:22:58;;;;;;;13.00;9.07;;;16.20;99.90;;;;;;5005576;28;20906;-71
2022/05/14 04:25:24;;;;;;;15.15;9.30;;;16.20;99.90;;;;;;5004456;28;20033;-71
2022/05/14 04:27:50;;;;;;;12.48;9.30;;;16.30;99.90;;;;;;5006683;28;20030;-70
2022/05/14 04:30:17;;;;;;;12.23;8.40;;;16.20;99.90;;;;;;4996894;28;20095;-71
2022/05/14 04:32:44;;;;;;;14.18;9.25;;;16.20;99.90;;;;;;5006368;28;20112;-71
2022/05/14 04:35:12;;;;;;;13.02;9.40;;;16.30;99.90;;;;;;5000154;28;20061;-71
2022/05/14 04:37:38;;;;;;;12.38;8.68;;;16.30;99.90;;;;;;5005229;28;20046;-71
2022/05/14 04:40:06;;;;;;;14.35;9.18;;;16.40;99.90;;;;;;5003678;28;20377;-70
2022/05/14 04:42:32;;;;;;;9.82;8.02;;;16.60;99.90;;;;;;5002200;28;20403;-71
2022/05/14 04:44:57;;;;;;;13.00;8.23;;;16.70;99.90;;;;;;5007994;28;20026;-71
2022/05/14 04:47:24;;;;;;;10.38;8.55;;;16.60;99.90;;;;;;4999562;28;20034;-71
2022/05/14 04:49:50;;;;;;;15.25;8.90;;;16.60;99.90;;;;;;5010014;28;20161;-71
2022/05/14 04:52:16;;;;;;;12.30;8.18;;;16.70;99.90;;;;;;5006132;28;20117;-71
2022/05/14 04:54:43;;;;;;;10.55;6.20;;;16.70;99.90;;;;;;5008104;28;20034;-71
2022/05/14 04:57:09;;;;;;;10.95;6.43;;;16.90;99.90;;;;;;5006793;28;20050;-71
2022/05/14 04:59:36;;;;;;;7.95;5.72;;;17.10;99.90;;;;;;5000465;28;20041;-71
2022/05/14 05:04:47;;;;;;;12.20;6.95;;;17.30;99.90;;;;;;4996083;28;20122;-71
2022/05/14 05:07:12;;;;;;;10.13;7.22;;;17.30;99.90;;;;;;5002789;28;20431;-71
2022/05/14 05:09:38;;;;;;;8.32;6.32;;;17.30;99.90;;;;;;5001157;28;20037;-71
2022/05/14 05:12:05;;;;;;;12.15;6.70;;;17.30;99.90;;;;;;5004188;28;20038;-71
2022/05/14 05:14:31;;;;;;;9.98;6.40;;;17.30;99.90;;;;;;5001566;28;20041;-71
2022/05/14 05:16:57;;;;;;;11.80;7.75;;;17.30;99.90;;;;;;5009503;28;20372;-71
2022/05/14 05:19:24;;;;;;;11.68;8.02;;;17.20;99.90;;;;;;5001510;28;20034;-71
2022/05/14 05:21:49;;;;;;;11.23;7.70;;;17.30;99.90;;;;;;5001636;28;20508;-71
2022/05/14 05:24:15;;;;;;;9.77;7.63;;;17.20;99.90;;;;;;5004004;28;20034;-71
2022/05/14 05:26:41;;;;;;;13.32;8.98;;;17.20;99.90;;;;;;5006215;28;20393;-71
2022/05/14 05:29:07;;;;;;;13.68;8.48;;;17.20;99.90;;;;;;5008960;28;20048;-71
2022/05/14 05:31:34;;;;;;;10.88;8.70;;;17.20;99.90;;;;;;4996833;28;20406;-71
2022/05/14 05:34:01;;;;;;;11.82;7.93;;;17.20;99.90;;;;;;5007290;28;20088;-71
2022/05/14 05:36:26;;;;;;;11.07;8.00;;;17.20;99.90;;;;;;5000245;28;20068;-71
2022/05/14 05:38:52;;;;;;;12.15;8.32;;;17.20;99.90;;;;;;5005508;28;20042;-71
2022/05/14 05:41:19;;;;;;;13.30;8.60;;;17.20;99.90;;;;;;4995607;28;20113;-71
2022/05/14 05:43:46;;;;;;;13.02;8.68;;;17.40;99.90;;;;;;5006362;28;20038;-71
2022/05/14 05:46:11;;;;;;;11.52;7.30;;;17.40;99.90;;;;;;4999716;28;20030;-71
2022/05/14 05:48:38;;;;;;;11.68;8.95;;;17.40;99.90;;;;;;5009614;28;20030;-71
2022/05/14 05:51:04;;;;;;;12.18;8.30;;;17.40;99.90;;;;;;5009877;28;20048;-71
2022/05/14 05:58:59;;;;;;;;;;;17.70;99.90;;;;;;5006124;28;20049;-70
2022/05/14 06:01:24;;;;;;;12.70;8.77;;;17.70;99.90;;;;;;4991094;28;19910;-71
2022/05/14 06:03:51;;;;;;;11.70;8.35;;;17.60;99.90;;;;;;5006438;28;20056;-71
2022/05/14 06:06:18;;;;;;;13.27;8.48;;;17.70;99.90;;;;;;4998892;28;20485;-71
2022/05/14 06:08:44;;;;;;;14.98;9.00;;;17.60;99.90;;;;;;5005338;28;20048;-71
2022/05/14 06:11:09;;;;;;;14.55;9.00;;;17.80;99.90;;;;;;4994879;28;20026;-71
2022/05/14 06:13:35;;;;;;;9.85;7.68;;;17.70;99.90;;;;;;5005587;28;20038;-71
2022/05/14 06:16:01;;;;;;;13.27;9.10;;;17.60;99.90;;;;;;4996372;28;20077;-71
2022/05/14 06:18:27;;;;;;;10.68;8.25;;;17.70;99.90;;;;;;5022414;28;20503;-71
2022/05/14 06:20:53;;;;;;;12.07;8.20;;;17.80;99.90;;;;;;4997631;28;20077;-71
2022/05/14 06:23:19;;;;;;;13.35;8.20;;;17.80;99.90;;;;;;5019314;28;20110;-71
2022/05/14 06:25:45;;;;;;;11.38;8.75;;;17.90;99.90;;;;;;4997500;28;20595;-71
2022/05/14 06:28:11;;;;;;;10.65;8.70;;;18.00;99.90;;;;;;5004867;28;20721;-71
2022/05/14 06:30:41;;;;;;;11.23;7.25;;;18.00;99.90;;;;;;4993355;28;20646;-71
2022/05/14 06:33:08;;;;;;;13.23;7.72;;;17.90;99.90;;;;;;5005645;28;20396;-71
2022/05/14 06:35:35;;;;;;;14.98;8.60;;;17.90;99.90;;;;;;5001314;28;20037;-71
2022/05/14 06:38:03;;;;;;;14.48;8.68;;;17.90;99.90;;;;;;5013321;28;20129;-71
2022/05/14 06:40:29;;;;;;;10.80;7.63;;;18.10;99.90;;;;;;5002835;28;20040;-71
2022/05/14 06:42:55;;;;;;;12.73;9.02;;;18.10;99.90;;;;;;5011762;28;20052;-71
2022/05/14 06:45:21;;;;;;;9.90;7.30;;;18.20;99.90;;;;;;5002920;28;20110;-71
2022/05/14 06:47:47;;;;;;;14.48;9.18;;;18.30;99.90;;;;;;4994576;28;20072;-71
2022/05/14 06:50:13;;;;;;;12.20;7.47;;;18.50;99.90;;;;;;5008022;28;20602;-71
2022/05/14 06:52:41;;;;;;;10.10;8.05;;;18.70;99.90;;;;;;5002897;28;20099;-71
2022/05/14 06:55:09;;;;;;;11.02;7.57;;;18.70;99.90;;;;;;5003031;28;20030;-71
2022/05/14 06:57:35;;;;;;;10.68;7.82;;;18.90;99.90;;;;;;5004756;28;20088;-72
2022/05/14 07:00:01;;;;;;;10.02;7.40;;;19.10;99.90;;;;;;5005496;28;20116;-71
2022/05/14 07:02:28;;;;;;;11.63;7.97;;;19.50;99.90;;;;;;4996183;28;20445;-71
2022/05/14 07:07:39;;;;;;;10.73;8.18;;;20.00;99.90;;;;;;5003605;28;20076;-71
2022/05/14 07:10:05;;;;;;;14.52;7.68;;;20.20;99.90;;;;;;5001036;28;20421;-71
2022/05/14 07:12:32;;;;;;;10.57;7.13;;;20.50;99.90;;;;;;5005300;28;20076;-71
2022/05/14 07:14:58;;;;;;;12.18;7.30;;;20.50;99.90;;;;;;4998226;28;20050;-71
2022/05/14 07:17:25;;;;;;;10.27;6.78;;;21.20;99.90;;;;;;5003460;28;21657;-71
2022/05/14 07:19:51;;;;;;;8.65;6.82;;;21.80;99.90;;;;;;5003675;28;20022;-71
2022/05/14 07:22:18;;;;;;;10.70;6.90;;;22.60;99.90;;;;;;5011270;28;20029;-71
2022/05/14 07:24:45;;;;;;;8.73;6.20;;;23.00;99.90;;;;;;5030413;28;20033;-70
2022/05/14 07:27:11;;;;;;;10.27;6.22;;;23.50;99.90;;;;;;5006649;28;20116;-70
2022/05/14 07:29:40;;;;;;;9.45;6.25;;;24.00;99.30;;;;;;5006138;28;20030;-71
2022/05/14 07:32:10;;;;;;;22.42;7.38;;;23.10;99.10;;;;;;4996781;28;20041;-71
2022/05/14 07:34:37;;;;;;;9.30;6.90;;;22.00;99.90;;;;;;5001846;28;20026;-72
2022/05/14 07:37:09;;;;;;;10.57;7.10;;;21.40;99.90;;;;;;4993421;28;20044;-72
2022/05/14 07:40:13;;;;;;;9.00;7.43;;;21.10;99.90;;;;;;5012837;28;20117;-72
2022/05/14 07:42:49;;;;;;;10.73;7.60;;;22.10;99.90;;;;;;5001372;28;20046;-72
2022/05/14 07:45:27;;;;;;;13.30;7.13;;;21.90;99.90;;;;;;4997542;28;20030;-72
2022/05/14 07:47:54;;;;;;;10.68;7.20;;;22.00;99.90;;;;;;5014701;28;20029;-73
2022/05/14 07:50:20;;;;;;;13.40;8.15;;;21.40;99.90;;;;;;5005935;28;20149;-73
2022/05/14 07:52:46;;;;;;;13.95;8.15;;;21.10;99.90;;;;;;5006279;28;20065;-72
2022/05/14 07:55:11;;;;;;;13.73;7.70;;;20.90;99.90;;;;;;4994401;28;20988;-72
2022/05/14 07:57:37;;;;;;;17.92;8.35;;;20.80;99.90;;;;;;5002902;28;20129;-72
2022/05/14 08:00:05;;;;;;;11.55;8.32;;;20.70;99.90;;;;;;4994696;28;20040;-72
2022/05/14 08:02:34;;;;;;;9.73;7.60;;;20.70;99.90;;;;;;5007379;28;20144;-72
2022/05/14 08:05:08;;;;;;;9.48;7.80;;;20.70;99.90;;;;;;4998242;28;20089;-74
2022/05/14 08:07:34;;;;;;;9.70;8.10;;;20.90;99.90;;;;;;5005375;28;20022;-71
2022/05/14 08:10:00;;;;;;;10.93;8.27;;;20.80;99.90;;;;;;5002675;28;20632;-72
2022/05/14 08:12:37;;;;;;;13.23;8.40;;;20.60;99.90;;;;;;5006913;28;20031;-73
2022/05/14 08:15:04;;;;;;;11.68;8.35;;;21.70;99.90;;;;;;4995308;28;20381;-73
2022/05/14 08:17:30;;;;;;;13.30;8.75;;;21.60;99.90;;;;;;5008342;28;20044;-73
2022/05/14 08:19:56;;;;;;;10.30;8.07;;;21.10;99.90;;;;;;4994377;28;20076;-72
2022/05/14 08:25:07;;;;;;;11.55;7.75;;;20.40;99.90;;;;;;5005585;28;20669;-72
2022/05/14 08:27:44;;;;;;;14.23;8.95;;;20.90;99.90;;;;;;4983706;28;20034;-72
2022/05/14 08:30:17;;;;;;;18.73;9.05;;;21.10;99.90;;;;;;4996865;28;20017;-72
2022/05/14 08:32:43;;;;;;;14.20;8.70;;;21.70;99.90;;;;;;4996918;28;20037;-72
2022/05/14 08:35:10;;;;;;;9.80;7.60;;;21.60;99.90;;;;;;5007433;28;20269;-72
2022/05/14 08:37:35;;;;;;;14.63;9.57;;;21.90;99.90;;;;;;5015625;28;20512;-72
2022/05/14 08:40:19;;;;;;;12.50;8.75;;;22.10;99.90;;;;;;5006915;28;20136;-73
2022/05/14 08:42:51;;;;;;;10.90;8.50;;;22.00;99.90;;;;;;4997002;28;20026;-70
2022/05/14 08:45:20;;;;;;;15.10;8.30;;;21.90;99.90;;;;;;5005813;28;20033;-70
2022/05/14 08:47:55;;;;;;;13.80;9.05;;;21.90;99.90;;;;;;4992383;28;20497;-70
2022/05/14 08:50:28;;;;;;;10.23;7.78;;;21.60;99.90;;;;;;4996852;28;20060;-70
2022/05/14 08:53:00;;;;;;;11.90;7.28;;;21.80;99.90;;;;;;5008345;28;20030;-71
2022/05/14 08:55:33;;;;;;;11.15;8.00;;;21.50;99.90;;;;;;4994674;28;20030;-72
2022/05/14 08:58:21;;;;;;;10.93;8.02;;;21.80;99.90;;;;;;4984901;28;20046;-72
2022/05/14 09:00:46;;;;;;;12.68;8.13;;;22.20;99.90;;;;;;4989429;28;20030;-72
2022/05/14 09:03:12;;;;;;;10.48;6.93;;;22.40;99.90;;;;;;4991805;28;20129;-72
2022/05/14 09:05:38;;;;;;;12.18;8.00;;;22.50;99.90;;;;;;4985508;28;20026;-73
2022/05/14 09:08:06;;;;;;;9.70;7.28;;;22.60;99.90;;;;;;4995271;28;20154;-72
2022/05/14 09:10:41;;;;;;;10.77;7.93;;;22.50;99.90;;;;;;4979709;28;20510;-74
2022/05/14 09:13:13;;;;;;;12.65;7.30;;;23.00;99.90;;;;;;4982445;28;20129;-73
2022/05/14 09:16:05;;;;;;;12.60;7.20;;;23.20;99.40;;;;;;4982571;28;20023;-74
2022/05/14 09:18:43;;;;;;;9.85;7.32;;;23.10;99.40;;;;;;4983308;28;20038;-73
2022/05/14 09:21:24;;;;;;;12.45;7.40;;;23.30;99.70;;;;;;4991818;28;20073;-73
2022/05/14 09:23:56;;;;;;;9.32;6.72;;;23.30;99.10;;;;;;4997990;28;20520;-73
2022/05/14 09:26:40;;;;;;;9.57;7.65;;;23.50;99.50;;;;;;4996512;28;20056;-76
2022/05/14 09:29:27;;;;;;;12.82;7.03;;;23.40;99.40;;;;;;4990039;28;20036;-73
2022/05/14 09:32:00;;;;;;;10.00;6.93;;;23.70;98.90;;;;;;4991791;28;20045;-72
2022/05/14 09:34:32;;;;;;;9.30;6.90;;;23.60;98.90;;;;;;4991300;28;20509;-74
2022/05/14 09:37:23;;;;;;;12.10;7.00;;;24.10;98.00;;;;;;4999334;28;20053;-74
2022/05/14 09:40:01;;;;;;;10.43;6.97;;;23.60;97.60;;;;;;4992414;28;20104;-75
2022/05/14 09:42:39;;;;;;;9.50;7.07;;;23.50;97.90;;;;;;4999661;28;20045;-73
2022/05/14 09:45:23;;;;;;;9.13;6.93;;;23.50;97.60;;;;;;4995593;28;20718;-71
2022/05/14 09:47:50;;;;;;;10.50;6.75;;;23.80;98.20;;;;;;4998977;28;20028;-72
2022/05/14 09:50:29;;;;;;;9.07;6.57;;;24.30;97.10;;;;;;4991218;28;20076;-73
2022/05/14 09:53:01;;;;;;;11.77;6.63;;;24.30;96.50;;;;;;5002972;28;20030;-73
2022/05/14 09:55:54;;;;;;;7.95;5.85;;;24.30;96.90;;;;;;4987292;28;20043;-72
2022/05/14 09:58:38;;;;;;;9.27;6.53;;;24.40;97.20;;;;;;4991695;28;20868;-72
2022/05/14 10:01:19;;;;;;;12.02;7.82;;;24.20;96.70;;;;;;4998991;28;20112;-72
2022/05/14 10:04:22;;;;;;;9.38;6.85;;;24.00;97.20;;;;;;5000349;28;20053;-72
2022/05/14 10:06:58;;;;;;;8.20;6.57;;;24.00;97.00;;;;;;4996172;28;20030;-73
2022/05/14 10:09:38;;;;;;;8.85;6.75;;;24.20;97.20;;;;;;4994088;28;20031;-72
2022/05/14 10:12:20;;;;;;;10.27;6.93;;;24.30;97.10;;;;;;4991921;28;20026;-74
2022/05/14 10:15:04;;;;;;;10.45;7.57;;;24.10;97.20;;;;;;4995422;28;20026;-72
2022/05/14 10:17:49;;;;;;;;;;;24.00;97.60;;;;;;4992220;28;20030;-73
2022/05/14 10:20:18;;;;;;;8.43;5.88;;;24.50;98.10;;;;;;5010112;28;19915;-72
2022/05/14 10:28:54;;;;;;;11.20;7.47;;;25.30;97.40;;;;;;4998006;28;20180;-73
2022/05/14 10:31:53;;;;;;;11.52;6.47;;;25.30;95.50;;;;;;4996373;28;20528;-73
2022/05/14 10:34:24;;;;;;;7.38;6.05;;;25.40;96.80;;;;;;4978200;28;20048;-74
2022/05/14 10:36:58;;;;;;;8.75;6.50;;;25.70;96.10;;;;;;4980251;28;20068;-73
2022/05/14 10:39:52;;;;;;;7.00;6.28;;;25.50;94.90;;;;;;5002021;28;20348;-73
2022/05/14 10:42:39;;;;;;;9.63;6.72;;;25.40;95.60;;;;;;5001762;28;20030;-73
2022/05/14 10:45:15;;;;;;;9.75;6.90;;;25.50;95.50;;;;;;5002753;28;20110;-74
2022/05/14 10:47:45;;;;;;;9.73;7.05;;;25.50;95.50;;;;;;4990053;28;20044;-73
2022/05/14 10:50:21;;;;;;;8.18;7.22;;;25.60;96.40;;;;;;5002471;28;20141;-73
2022/05/14 10:52:50;;;;;;;10.23;7.60;;;25.80;95.40;;;;;;5002971;28;20025;-73
2022/05/14 10:55:20;;;;;;;10.63;7.45;;;26.20;97.10;;;;;;4993991;28;20038;-73
2022/05/14 10:57:52;;;;;;;8.73;7.25;;;26.00;96.60;;;;;;4991537;28;20066;-74
2022/05/14 11:00:31;;;;;;;8.75;6.22;;;26.30;95.60;;;;;;5003232;28;20050;-73
2022/05/14 11:03:01;;;;;;;9.50;6.43;;;25.90;94.80;;;;;;4993823;28;20033;-73
2022/05/14 11:05:49;;;;;;;9.52;7.68;;;25.60;95.60;;;;;;5004907;28;20563;-74
2022/05/14 11:08:31;;;;;;;13.40;8.27;;;25.60;97.30;;;;;;4997086;28;20042;-73
2022/05/14 11:11:08;;;;;;;17.00;8.93;;;25.60;96.90;;;;;;4999850;28;20042;-73
2022/05/14 11:13:34;;;;;;;10.95;7.00;;;25.90;95.60;;;;;;4995868;28;20034;-74
2022/05/14 11:16:10;;;;;;;9.18;7.97;;;25.70;95.60;;;;;;5002397;28;20523;-74
2022/05/14 11:18:54;;;;;;;10.65;7.78;;;25.70;95.80;;;;;;4997398;28;20048;-73
2022/05/14 11:21:32;;;;;;;10.13;7.38;;;26.30;96.00;;;;;;5002851;28;20037;-74
2022/05/14 11:24:01;;;;;;;10.38;6.75;;;26.50;95.00;;;;;;4995802;28;20608;-74
2022/05/14 11:26:27;;;;;;;13.55;6.93;;;26.80;94.90;;;;;;4993758;28;20492;-74
2022/05/14 11:29:09;;;;;;;10.00;6.93;;;26.80;93.90;;;;;;4996576;28;20041;-74
2022/05/14 11:31:40;;;;;;;10.27;6.75;;;26.80;93.80;;;;;;4996838;28;20129;-74
2022/05/14 11:34:26;;;;;;;9.23;6.97;;;26.70;94.20;;;;;;4995319;28;20034;-74
2022/05/14 11:36:55;;;;;;;9.68;6.43;;;27.00;93.90;;;;;;5001211;28;20575;-75
2022/05/14 11:39:20;;;;;;;9.05;6.47;;;27.30;93.80;;;;;;4992000;28;20036;-75
2022/05/14 11:41:47;;;;;;;8.35;6.30;;;27.50;94.40;;;;;;5001545;28;20021;-75
2022/05/14 11:44:12;;;;;;;7.75;5.88;;;27.80;94.10;;;;;;5002609;28;20187;-75
2022/05/14 11:46:41;;;;;;;8.50;5.18;;;27.80;93.30;;;;;;5001678;28;20121;-76
2022/05/14 11:49:12;;;;;;;11.43;6.97;;;27.60;93.00;;;;;;4999281;28;20037;-75
2022/05/14 11:52:11;;;;;;;12.70;6.22;;;27.10;93.20;;;;;;4993941;28;20549;-75
2022/05/14 11:54:53;;;;;;;14.00;6.45;;;26.80;93.30;;;;;;4987555;28;20049;-74
2022/05/14 11:57:35;;;;;;;12.32;5.70;;;26.80;93.30;;;;;;4990974;28;20042;-75
2022/05/14 12:00:28;;;;;;;12.48;5.03;;;26.60;93.30;;;;;;5001853;28;20420;-75
2022/05/14 12:03:23;;;;;;;9.55;5.40;;;26.10;93.10;;;;;;4999401;28;20073;-74
2022/05/14 12:06:03;;;;;;;9.25;4.70;;;26.10;93.40;;;;;;4997762;28;20042;-74
2022/05/14 12:09:01;;;;;;;11.70;5.65;;;26.50;93.20;;;;;;4995210;28;20030;-74
2022/05/14 12:11:47;;;;;;;8.82;4.88;;;26.30;92.90;;;;;;4992377;28;20042;-74
2022/05/14 12:14:15;;;;;;;8.65;5.18;;;26.20;93.20;;;;;;4998211;28;20507;-74
2022/05/14 12:17:18;;;;;;;8.23;5.13;;;26.60;93.30;;;;;;5001282;28;20068;-75
2022/05/14 12:19:51;;;;;;;9.25;5.22;;;26.90;92.30;;;;;;4979000;28;20408;-74
2022/05/14 12:22:23;;;;;;;11.00;5.53;;;27.20;92.80;;;;;;5002570;28;20137;-74
2022/05/14 12:24:53;;;;;;;8.73;4.85;;;27.20;92.70;;;;;;4999762;28;20030;-74
2022/05/14 12:27:19;;;;;;;9.98;4.82;;;27.10;91.80;;;;;;4998908;28;20030;-74
2022/05/14 12:30:03;;;;;;;14.57;5.57;;;27.20;91.60;;;;;;5001685;28;20121;-74
2022/05/14 12:35:23;;;;;;;7.78;4.05;;;27.20;91.70;;;;;;5002715;28;20073;-75
2022/05/14 12:38:02;;;;;;;6.40;3.72;;;26.80;91.20;;;;;;4984936;28;20046;-75
2022/05/14 12:40:30;;;;;;;15.63;4.93;;;27.00;91.70;;;;;;4998935;28;20618;-74
2022/05/14 12:42:57;;;;;;;9.43;3.95;;;26.80;91.80;;;;;;4987639;28;20037;-74
2022/05/14 12:45:41;;;;;;;9.77;5.03;;;26.60;91.70;;;;;;4990821;28;20105;-75
2022/05/14 12:48:09;;;;;;;12.55;4.38;;;26.50;92.10;;;;;;4985024;28;20535;-74
2022/05/14 12:50:35;;;;;;;11.10;4.85;;;26.60;91.90;;;;;;4975756;28;20400;-74
2022/05/14 12:53:05;;;;;;;12.70;5.00;;;27.00;92.10;;;;;;4990659;28;21267;-75
2022/05/14 12:55:36;;;;;;;9.85;3.75;;;26.60;92.10;;;;;;4991828;28;20135;-74
2022/05/14 12:58:03;;;;;;;8.73;4.25;;;26.40;92.00;;;;;;4994166;28;20034;-74
2022/05/14 13:00:30;;;;;;;6.55;3.40;;;26.20;91.30;;;;;;5001474;28;20069;-74
2022/05/14 13:03:25;;;;;;;8.45;4.05;;;25.70;91.40;;;;;;5006062;28;20038;-74
2022/05/14 13:06:19;;;;;;;5.78;3.35;;;25.70;91.80;;;;;;4999954;28;20072;-74
2022/05/14 13:08:49;;;;;;;5.95;3.40;;;25.40;91.40;;;;;;4982327;28;20048;-74
2022/05/14 13:11:19;;;;;;;10.32;3.78;;;25.40;91.60;;;;;;4977240;28;20531;-75
2022/05/14 13:13:48;;;;;;;8.07;3.70;;;25.20;92.10;;;;;;4977822;28;20041;-74
2022/05/14 13:16:23;;;;;;;7.45;4.00;;;25.10;92.10;;;;;;4999795;28;20069;-74
2022/05/14 13:18:53;;;;;;;10.20;3.47;;;25.30;92.20;;;;;;4996029;28;20034;-73
2022/05/14 13:21:32;;;;;;;6.65;3.95;;;25.90;92.30;;;;;;4998913;28;20034;-74
2022/05/14 13:24:32;;;;;;;4.93;3.33;;;26.10;91.40;;;;;;4976260;28;20038;-74
2022/05/14 13:27:03;;;;;;;6.30;3.40;;;26.60;91.80;;;;;;4991052;28;20042;-74